Tiempo atmosférico en la estación meteorológica de Fuengirola, Málaga (3 m.)



Fecha
DESCASC
Temp. máxima en grados centígrados (hora)
DESCASC
Temp. mínima en grados centígrados (hora)
DESCASC
Temp. media en grados centígrados
DESCASC
Racha de viento máxima en m/sg (hora)
DESCASC
Velocidad máxima media en intervalos de 10 minutos(hora)
DESCASC
Precipitaciones diarias en mm
DESCASC
Precipitaciones de 00:00 a 06:00 en mm
DESCASC
Precipitaciones de 06:00 a 12:00 en mm
DESCASC
Precipitaciones de 12:00 a 18:00 en mm
DESCASC
Precipitaciones de 18:00 a 24:00 en mm
DESCASC
18-01-2018 16 (13:20) 12.9 (01:10) 14.4 8.89 (02:10) 5.56 (07:40) 0 0 0 0 0
17-01-2018 15.9 (16:50) 9.3 (06:40) 12.6 6.11 (23:59) 4.44 (23:59) 0 0 0 0 0
16-01-2018 15.7 (17:30) 8.2 (07:40) 11.9 5.83 (14:10) 3.89 (14:00) 0 0 0 0 0
15-01-2018 14 (17:10) 8.5 (08:50) 11.3 10.56 (03:30) 5 (13:10) 0 0 0 0 0
14-01-2018 12.4 (17:50) 9.2 (00:00) 10.8 4.44 (23:59) 2.5 (07:30) 0.5 0 0 0.5 0
13-01-2018 13.8 (14:50) 8.7 (00:00) 11.3 5 (22:20) 2.5 (01:00) 0 0 0 0 0
12-01-2018 15.3 (16:10) 9.7 (00:00) 12.5 9.17 (05:30) 3.61 (05:30) 0 0 0 0 0
11-01-2018 16.9 (16:30) 11.9 (00:00) 14.4 11.67 (13:40) 4.44 (20:10) 0 0 0 0 0
10-01-2018 18.5 (15:40) 10.7 (00:00) 14.6 10.83 (22:40) 3.89 (22:40) 4.9 4.8 0.1 0 0
09-01-2018 13.6 (15:50) 7.3 (00:00) 10.5 4.72 (03:20) 3.06 (08:50) 2.9 0 0 0 2.9
08-01-2018 10.6 (18:00) 6.8 (00:00) 8.7 10 (09:50) 6.67 (09:50) 32.5 0 28.7 3.8 0
07-01-2018 11.7 (14:10) 8.1 (00:00) 9.9 7.5 (16:30) 2.78 (16:50) 0 0 0 0 0
06-01-2018 15.8 (03:00) 9.4 (00:00) 12.6 17.22 (11:20) 6.11 (11:20) 5.4 0 5.4 0 0
05-01-2018 18.1 (13:50) 13.4 (00:00) 15.8 10.28 (15:00) 3.89 (16:30) 0 0 0 0 0
04-01-2018 21.5 (16:30) 14.4 (07:50) 17.9 12.78 (21:30) 7.5 (21:30) 0 0 0 0 0
03-01-2018 23.6 (14:40) 15.6 (00:00) 19.6 8.89 (00:20) 4.44 (00:10) 0 0 0 0 0
02-01-2018 20.5 (15:20) 14 (00:00) 17.3 18.61 (22:30) 8.33 (02:50) 0 0 0 0 0
01-01-2018 18.8 (17:00) 13.8 (00:00) 16.3 11.11 (01:40) 5.56 (01:50) 0 0 0 0 0
31-12-2017 18.5 (15:40) 12.2 (00:00) 15.3 7.5 (09:40) 3.33 (09:40) 0 0 0 0 0
30-12-2017 18.2 (00:30) 13.9 (00:00) 16.1 5.28 (00:20) 3.33 (16:40) 0 0 0 0 0
29-12-2017 20.6 (16:30) 14.3 (00:00) 17.5 11.39 (19:40) 4.72 (20:00) 0 0 0 0 0
28-12-2017 19.5 (14:00) 14.3 (00:00) 16.9 8.89 (11:20) 3.33 (11:20) 0 0 0 0 0
27-12-2017 19.3 (14:10) 13.8 (00:00) 16.5 14.72 (05:00) 6.39 (14:40) 0.1 0 0.1 0 0
26-12-2017 17.2 (14:30) 13.2 (00:00) 15.2 10.56 (18:30) 4.44 (18:00) 0.1 0 0 0 0.1
25-12-2017 16.3 (17:10) 11.8 (00:00) 14 8.61 (16:00) 4.17 (01:30) 0 0 0 0 0
24-12-2017 16.8 (15:20) 13.6 (00:00) 15.2 9.72 (02:50) 7.22 (08:20) 0 0 0 0 0
23-12-2017 15.8 (14:40) 10.8 (00:00) 13.3 15.28 (14:20) 6.11 (23:00) 0 0 0 0 0
22-12-2017 17 (17:10) 9.7 (00:00) 13.3 8.89 (14:00) 2.78 (08:20) 0 0 0 0 0

Gráficas

Temp. máximas Temp. mínimas Temp. medias Precipitaciones Rachas de viento máximas Velocidades máximas media en intervalos de 10 minutos

Datos horarios

Fecha y hora oficial Temperatura (ºC) Velocidad del viento (km/h) Dirección del viento Racha (km/h) Dirección de racha Precipitación (mm) Presión (hPa) Tendencia (hPa) Humedad (%)
2018-01-20 23:00:00 16.1 6 Este 16 Norte 0 1027.1 0.5 57
2018-01-20 22:00:00 16.1 0 Calma 17 Norte 0 1027.2 1.2 55
2018-01-20 21:00:00 17.5 9 Noroeste 18 Norte 0 1026.7 1 47
2018-01-20 20:00:00 19.1 10 Noroeste 19 Oeste 0 1026.6 1.6 42
2018-01-20 19:00:00 18.7 10 Oeste 18 Oeste 0 1026 1.3 53
2018-01-20 18:00:00 19.6 3 Oeste 18 Sudeste 0 1025.7 0.8 53
2018-01-20 17:00:00 21 4 Sudoeste 13 Norte 0 1025 -0.2 49
2018-01-20 16:00:00 20.7 5 Nordeste 17 Nordeste 0 1024.7 -1.4 43
2018-01-20 15:00:00 20.8 3 Este 15 Noroeste 0 1024.9 -1.6 47
2018-01-20 14:00:00 19.9 4 Oeste 23 Oeste 0 1025.2 -1.1 51
2018-01-20 13:00:00 19.5 9 Noroeste 21 Noroeste 0 1026.1 0.4 53
2018-01-20 12:00:00 18.3 7 Oeste 21 Oeste 0 1026.5 1.6 55
2018-01-20 11:00:00 16.7 5 Oeste 17 Oeste 0 1026.3 1.9 63
2018-01-20 10:00:00 15.6 0 Calma 15 Oeste 0 1025.7 2.3 63
2018-01-20 09:00:00 14.5 2 Oeste 18 Oeste 0 1024.9 1.8 65
2018-01-20 08:00:00 14.4 8 Noroeste 14 Noroeste 0 1024.4 1.2 65
2018-01-20 07:00:00 14.6 10 Noroeste 14 Oeste 0 1023.4 0.6 65
2018-01-20 06:00:00 14.9 6 Noroeste 14 Oeste 0 1023.1 0.3 65
2018-01-20 05:00:00 14.5 3 Noroeste 10 Norte 0 1023.2 0.6 67
2018-01-20 04:00:00 14.6 3 Norte 15 Oeste 0 1022.8 0.1 67
2018-01-20 03:00:00 15.3 9 Noroeste 21 Norte 0 1022.8 0 63
2018-01-20 02:00:00 16.5 12 Oeste 27 Oeste 0 1022.6 0.2 61
2018-01-20 01:00:00 16.6 7 Oeste 31 Oeste 0 1022.7 0.7 59
2018-01-20 00:00:00 16.9 7 Oeste 27 Oeste 0 1022.8 1.3 59
2018-01-19 23:00:00 16.9 8 Oeste 23 Oeste 0 1022.4 1.6 59
2018-01-19 22:00:00 15.9 5 Sudoeste 16 Oeste 0 1022 1.4 71
2018-01-19 21:00:00 14.4 2 Noroeste 13 Noroeste 0 1021.5 1.5 86
2018-01-19 20:00:00 15 2 Noroeste 12 Norte 0 1020.8 1.2 87
2018-01-19 19:00:00 15.5 3 Oeste 12 Oeste 0 1020.6 1 86
2018-01-19 18:00:00 16 2 Oeste 15 Sudoeste 0 1020 0.6 85
2018-01-19 17:00:00 16.4 6 Sudoeste 18 Sudoeste 0 1019.6 0.2 86
2018-01-19 16:00:00 16.3 4 Sudoeste 18 Sudoeste 0 1019.6 -0.2 85
2018-01-19 15:00:00 15.7 13 Sudoeste 19 Sudoeste 0 1019.4 -0.6 87
2018-01-19 14:00:00 15.7 9 Sudoeste 19 Sudoeste 0 1019.4 -0.1 84
2018-01-19 13:00:00 16.1 3 Sudoeste 9 Sudoeste 0 1019.8 1 80
2018-01-19 12:00:00 15.5 3 Oeste 8 Oeste 0 1020 1.9 81
2018-01-19 11:00:00 14.6 3 Noroeste 9 Noroeste 0 1019.5 1.8 80
2018-01-19 10:00:00 12.8 5 Noroeste 12 Oeste 0 1018.8 1.9 84
2018-01-19 09:00:00 12.6 7 Noroeste 14 Oeste 0 1018.1 1.7 84
2018-01-19 08:00:00 12.6 8 Oeste 14 Oeste 0 1017.7 1 85
2018-01-19 07:00:00 13.2 8 Noroeste 11 Noroeste 0 1016.9 -0.4 84
2018-01-19 06:00:00 13.4 6 Oeste 13 Oeste 0 1016.4 -1.2 83
2018-01-19 05:00:00 13.3 6 Oeste 11 Oeste 0 1016.7 -1.4 83
2018-01-19 04:00:00 13.5 3 Noroeste 11 Noroeste 0 1017.3 -1.2 83
2018-01-19 03:00:00 13.3 7 Noroeste 14 Oeste 0 1017.6 -0.9 82
2018-01-19 02:00:00 13.2 6 Oeste 14 Oeste 0 1018.1 -0.1 82
2018-01-19 01:00:00 13.3 7 Noroeste 13 Noroeste 0 1018.5 0.4 82
2018-01-19 00:00:00 13.3 7 Noroeste 12 Noroeste 0 1018.5 0 80
2018-01-18 23:00:00 13.5 6 Noroeste 11 Oeste 0 1018.2 -0.7 81
2018-01-18 22:00:00 13.7 2 Noroeste 10 Noroeste 0 1018.1 -0.9 79
2018-01-18 21:00:00 14.1 5 Noroeste 9 Oeste 0 1018.5 -0.9 79
2018-01-18 20:00:00 14.5 0 Calma 9 Nordeste 0 1018.9 -0.5 79
2018-01-18 19:00:00 15 6 Nordeste 10 Este 0 1019 -0.5 78
2018-01-18 18:00:00 15.4 6 Nordeste 13 Nordeste 0 1019.4 -0.5 73
2018-01-18 17:00:00 15.8 6 Nordeste 9 Nordeste 0 1019.4 -1.4 72
2018-01-18 16:00:00 15.7 4 Nordeste 6 Nordeste 0 1019.5 -2 74
2018-01-18 15:00:00 15.5 3 Sudoeste 8 Sudoeste 0 1019.9 -2.4 80
2018-01-18 14:00:00 15.6 5 Sudoeste 10 Sudoeste 0 1020.8 -2 80
2018-01-18 13:00:00 15.9 3 Sudoeste 6 Sur 0 1021.5 -1 78
2018-01-18 12:00:00 15.4 5 Este 13 Este 0 1022.3 0.1 80
2018-01-18 11:00:00 14.5 5 Este 11 Sudeste 0 1022.8 0.8 87
2018-01-18 10:00:00 14.3 2 Sudeste 16 Sudeste 0 1022.5 1.2 92
2018-01-18 09:00:00 14.3 2 Oeste 21 Sudeste 0 1022.2 1.2 92
2018-01-18 08:00:00 14.6 16 Sudeste 28 Sudeste 0 1022 1.1 87
2018-01-18 07:00:00 13.7 5 Este 14 Este 0 1021.3 0.2 81
2018-01-18 06:00:00 14.9 8 Este 19 Este 0 1021 -0.1 79
2018-01-18 05:00:00 15.1 9 Este 21 Este 0 1020.9 -0.3 77
2018-01-18 04:00:00 15.4 12 Este 26 Este 0 1021.1 -0.4 74
2018-01-18 03:00:00 15.5 15 Este 32 Este 0 1021.1 -0.2 75
2018-01-18 02:00:00 15.6 18 Este 28 Este 0 1021.2 -0.1 74
2018-01-18 01:00:00 13 3 Norte 24 Este 0 1021.5 0.6 93
2018-01-18 00:00:00 13.5 16 Este 22 Este 0 1021.3 0.9 98
2018-01-17 23:00:00 12.5 4 Norte 9 Norte 0 1021.3 1.2 98
2018-01-17 22:00:00 12.7 3 Norte 9 Sudoeste 0 1020.9 0.8 97
2018-01-17 21:00:00 13.6 0 Calma 9 Oeste 0 1020.4 0.1 95
2018-01-17 20:00:00 14.2 0 Calma 10 Este 0 1020.1 -0.4 98
2018-01-17 19:00:00 14.6 4 Este 11 Nordeste 0 1020.1 -0.1 95
2018-01-17 18:00:00 15.5 6 Este 10 Este 0 1020.3 -0.2 93
2018-01-17 17:00:00 15.8 7 Este 10 Este 0 1020.5 -0.1 91
2018-01-17 16:00:00 15.5 0 Calma 10 Sudeste 0 1020.2 -0.9 92
2018-01-17 15:00:00 15.7 6 Este 16 Sudeste 0 1020.5 -1.2 94
2018-01-17 14:00:00 15.4 11 Sudeste 15 Este 0 1020.6 -1.3 94
2018-01-17 13:00:00 15 6 Este 13 Nordeste 0 1021.1 -0.4 93
2018-01-17 12:00:00 14.7 4 Nordeste 13 Nordeste 0 1021.7 0.3 92
2018-01-17 11:00:00 13.3 8 Nordeste 14 Nordeste 0 1021.9 0.5 90
2018-01-17 10:00:00 11.6 5 Nordeste 8 Nordeste 0 1021.5 -0.1 94
2018-01-17 09:00:00 9.8 3 Norte 6 Norte 0 1021.4 -0.3 94
2018-01-17 08:00:00 9.4 4 Norte 8 Oeste 0 1021.4 -0.9 93
2018-01-17 07:00:00 9.6 5 Noroeste 10 Noroeste 0 1021.6 -1.5 93
2018-01-17 06:00:00 9.6 5 Noroeste 9 Noroeste 0 1021.7 -1.8 92
2018-01-17 05:00:00 10.2 0 Calma 8 Noroeste 0 1022.3 -1.6 91
2018-01-17 04:00:00 10.3 8 Noroeste 11 Noroeste 0 1023.1 -1.5 91
2018-01-17 03:00:00 10.5 6 Noroeste 9 Noroeste 0 1023.5 -1.5 90
2018-01-17 02:00:00 10.9 4 Noroeste 7 Noroeste 0 1023.9 -1 90
2018-01-17 01:00:00 11.3 3 Noroeste 9 Noroeste 0 1024.6 -0.5 88
2018-01-17 00:00:00 12.1 5 Norte 17 Este 0 1025 -0.3 88
2018-01-16 23:00:00 12.1 0 Calma 10 Oeste 0 1024.9 0 88
2018-01-16 22:00:00 12.3 2 Noroeste 7 Noroeste 0 1025.1 0.2 87
2018-01-16 21:00:00 13.1 4 Nordeste 8 Norte 0 1025.3 0.4 86
2018-01-16 20:00:00 13.4 0 Calma 5 Oeste 0 1024.9 -0.3 80
2018-01-16 19:00:00 14.3 0 Calma 11 Sudoeste 0 1024.9 -1.1 80
2018-01-16 18:00:00 14.9 3 Oeste 13 Oeste 0 1024.9 -2 77
2018-01-16 17:00:00 15.4 3 Oeste 14 Oeste 0 1025.2 -2.8 75
2018-01-16 16:00:00 15.5 3 Oeste 14 Oeste 0 1026 -3.1 71
2018-01-16 15:00:00 14.8 4 Oeste 21 Sudoeste 0 1026.9 -3.4 74
2018-01-16 14:00:00 14.4 14 Sudoeste 20 Sur 0 1028 -2.1 81
2018-01-16 13:00:00 13.7 10 Sudoeste 17 Sur 0 1029.1 -0.5 86
2018-01-16 12:00:00 13.5 5 Sudoeste 15 Sudoeste 0 1030.3 1.1 87
2018-01-16 11:00:00 12.8 11 Sudoeste 18 Sur 0 1030.1 1.2 85
2018-01-16 10:00:00 9.4 6 Oeste 14 Oeste 0 1029.6 1 86
2018-01-16 09:00:00 8.6 9 Noroeste 19 Oeste 0 1029.2 0.7 87
2018-01-16 08:00:00 8.5 8 Oeste 16 Oeste 0 1028.9 0 89
2018-01-16 07:00:00 8.5 9 Noroeste 17 Noroeste 0 1028.6 -0.7 90
2018-01-16 06:00:00 8.4 9 Noroeste 16 Oeste 0 1028.5 -0.9 90
2018-01-16 05:00:00 8.3 9 Noroeste 17 Noroeste 0 1028.9 -0.5 90
2018-01-16 04:00:00 8.5 9 Noroeste 16 Noroeste 0 1029.3 -0.5 90
2018-01-16 03:00:00 8.6 7 Noroeste 13 Noroeste 0 1029.4 -0.7 90
2018-01-16 02:00:00 9.1 4 Noroeste 12 Noroeste 0 1029.4 -0.3 89
2018-01-16 01:00:00 9.2 9 Noroeste 13 Noroeste 0 1029.8 0.8 88
2018-01-16 00:00:00 9.5 7 Noroeste 14 Oeste 0 1030.1 1.5 87
2018-01-15 23:00:00 10 6 Noroeste 13 Noroeste 0 1029.7 2.1 86
2018-01-15 22:00:00 10.6 8 Noroeste 12 Oeste 0 1029 2.3 84
2018-01-15 21:00:00 11.3 5 Noroeste 10 Noroeste 0 1028.6 2.6 80
2018-01-15 20:00:00 11.8 4 Noroeste 9 Nordeste 0 1027.6 2.1 78
2018-01-15 19:00:00 13 7 Nordeste 13 Este 0 1026.7 1.6 77
2018-01-15 18:00:00 13.6 9 Este 18 Este 0 1026 1.5 77
2018-01-15 17:00:00 13.9 13 Este 19 Este 0 1025.5 0.9 76
2018-01-15 16:00:00 13.8 15 Este 22 Este 0 1025.1 0.3 76
2018-01-15 15:00:00 13.5 14 Este 23 Nordeste 0 1024.5 -0.4 75
2018-01-15 14:00:00 13.4 15 Este 27 Este 0 1024.6 0.6 74
2018-01-15 13:00:00 13.8 15 Este 25 Este 0 1024.8 1.8 72
2018-01-15 12:00:00 13 13 Este 21 Este 0 1024.9 2.6 70
2018-01-15 11:00:00 11.4 5 Oeste 14 Oeste 0 1024 2.6 73
2018-01-15 10:00:00 9.9 8 Oeste 15 Oeste 0 1023 2.4 77
2018-01-15 09:00:00 8.9 6 Noroeste 13 Noroeste 0 1022.3 2.5 78
2018-01-15 08:00:00 9.4 8 Noroeste 17 Noroeste 0 1021.4 1.9 75
2018-01-15 07:00:00 9.2 6 Noroeste 15 Noroeste 0 1020.6 1.2 76
2018-01-15 06:00:00 9.6 7 Noroeste 21 Noroeste 0 1019.8 0.7 76
2018-01-15 05:00:00 10.1 7 Noroeste 25 Norte 0 1019.5 0.3 72
2018-01-15 04:00:00 10.4 6 Norte 38 Noroeste 0 1019.4 -0.1 72
2018-01-15 03:00:00 10 9 Oeste 36 Oeste 0 1019.1 -1.2 77
2018-01-15 02:00:00 10.4 10 Oeste 33 Oeste 0 1019.2 -1 74
2018-01-15 01:00:00 10.7 3 Oeste 20 Norte 0 1019.5 -0.1 77
2018-01-15 00:00:00 10 5 Noroeste 16 Norte 0 1020.3 1 81
2018-01-14 23:00:00 9.8 0 Calma 12 Norte 0 1020.2 1.4 84
2018-01-14 22:00:00 10 4 Oeste 12 Oeste 0 1019.6 1.6 89
2018-01-14 21:00:00 10.1 4 Oeste 10 Oeste 0 1019.3 1.6 94
2018-01-14 20:00:00 10.9 3 Noroeste 8 Noroeste 0 1018.8 1.3 94
2018-01-14 19:00:00 11.7 0 Calma 6 Oeste 0 1018 0.5 92
2018-01-14 18:00:00 12.3 2 Oeste 8 Sudoeste 0 1017.7 0.2 92
2018-01-14 17:00:00 11.8 2 Oeste 10 Oeste 0 1017.5 -0.7 95
2018-01-14 16:00:00 11.6 3 Oeste 10 Oeste 0 1017.5 -1.8 97
2018-01-14 15:00:00 11.2 4 Oeste 11 Sudeste 0 1017.5 -2.2 96
2018-01-14 14:00:00 10.9 2 Oeste 8 Noroeste 0.4 1018.2 -1.7 93
2018-01-14 13:00:00 11 3 Noroeste 10 Noroeste 0.1 1019.3 -0.1 90
2018-01-14 12:00:00 11.3 2 Oeste 6 Noroeste 0 1019.7 0.3 90
2018-01-14 11:00:00 10.7 2 Noroeste 6 Noroeste 0 1019.9 0.6 84
2018-01-14 10:00:00 10.2 2 Noroeste 14 Oeste 0 1019.4 0.3 80
2018-01-14 09:00:00 9.8 8 Noroeste 15 Oeste 0 1019.4 0 79
2018-01-14 08:00:00 9.3 8 Noroeste 16 Oeste 0 1019.3 -0.4 79
2018-01-14 07:00:00 9.8 8 Oeste 16 Oeste 0 1019.1 -0.9 78
2018-01-14 06:00:00 10.1 6 Oeste 12 Oeste 0 1019.4 -0.6 80
2018-01-14 05:00:00 9.5 7 Oeste 15 Oeste 0 1019.7 -0.7 81
2018-01-14 04:00:00 9.9 8 Oeste 14 Oeste 0 1020 -0.8 79
2018-01-14 03:00:00 11 3 Oeste 13 Oeste 0 1020 -1 78
2018-01-14 02:00:00 10.3 6 Oeste 14 Oeste 0 1020.4 -0.5 79
2018-01-14 01:00:00 11.3 7 Oeste 14 Noroeste 0 1020.8 0.1 76
2018-01-14 00:00:00 12.1 6 Oeste 13 Oeste 0 1021 0.5 73
2018-01-13 23:00:00 12.4 5 Noroeste 18 Norte 0 1020.9 0.9 73
2018-01-13 22:00:00 12.3 4 Noroeste 15 Oeste 0 1020.7 1.3 77
2018-01-13 21:00:00 11.7 4 Oeste 17 Noroeste 0 1020.5 1.2 95
2018-01-13 20:00:00 12.1 4 Noroeste 8 Oeste 0 1020 1.4 95
2018-01-13 19:00:00 12.5 2 Noroeste 10 Norte 0 1019.4 0.3 95
2018-01-13 18:00:00 12.9 5 Noroeste 13 Oeste 0 1019.3 0.4 94
2018-01-13 17:00:00 13 0 Calma 15 Oeste 0 1018.6 -1 94
2018-01-13 16:00:00 13.4 6 Oeste 17 Oeste 0 1019.1 -1.4 87
2018-01-13 15:00:00 13.7 5 Oeste 18 Noroeste 0 1018.9 -2.1 82
2018-01-13 14:00:00 13.4 3 Sudoeste 13 Oeste 0 1019.6 -1.6 79
2018-01-13 13:00:00 12.6 3 Noroeste 9 Oeste 0 1020.5 -0.1 79
2018-01-13 12:00:00 11.7 3 Oeste 8 Oeste 0 1021 0.7 79
2018-01-13 11:00:00 10.4 6 Oeste 13 Oeste 0 1021.2 0.9 79
2018-01-13 10:00:00 9.4 8 Noroeste 13 Noroeste 0 1020.6 0.7 79
2018-01-13 09:00:00 9.4 7 Noroeste 13 Oeste 0 1020.3 0.3 78
2018-01-13 08:00:00 8.9 8 Noroeste 15 Oeste 0 1020.3 0 78
2018-01-13 07:00:00 8.8 8 Noroeste 15 Noroeste 0 1019.9 -0.9 79
2018-01-13 06:00:00 8.9 7 Noroeste 15 Oeste 0 1020 -1 78
2018-01-13 05:00:00 9.2 6 Noroeste 17 Noroeste 0 1020.3 -1.2 78
2018-01-13 04:00:00 9 8 Noroeste 13 Oeste 0 1020.8 -1.6 77
2018-01-13 03:00:00 9 7 Noroeste 13 Oeste 0 1021 -1.8 76
2018-01-13 02:00:00 9.4 5 Noroeste 12 Noroeste 0 1021.5 -1.6 74
2018-01-13 01:00:00 9.5 9 Noroeste 13 Oeste 0 1022.4 -0.7 74
2018-01-13 00:00:00 9.8 6 Noroeste 13 Noroeste 0 1022.8 -0.4 73
2018-01-12 23:00:00 10 7 Noroeste 13 Oeste 0 1023.1 -0.1 73
2018-01-12 22:00:00 10.8 4 Noroeste 10 Noroeste 0 1023.1 0.4 73
2018-01-12 21:00:00 11.3 8 Noroeste 13 Noroeste 0 1023.2 0.3 71
2018-01-12 20:00:00 12.2 4 Oeste 9 Oeste 0 1023.2 0.3 71
2018-01-12 19:00:00 13 2 Este 5 Este 0 1022.7 -0.2 67
2018-01-12 18:00:00 13.7 2 Este 5 Sudeste 0 1022.9 -0.2 65
2018-01-12 17:00:00 14.9 4 Sudeste 6 Sur 0 1022.9 -0.9 61
2018-01-12 16:00:00 15.1 3 Sur 7 Sudeste 0 1022.9 -1.8 60
2018-01-12 15:00:00 14.7 5 Sudeste 9 Sudeste 0 1023.1 -2.2 60
2018-01-12 14:00:00 14.8 7 Sur 11 Sur 0 1023.8 -1.8 62
2018-01-12 13:00:00 14.2 6 Sudeste 12 Sudeste 0 1024.7 0 64
2018-01-12 12:00:00 13.4 3 Este 11 Sudeste 0 1025.3 1.4 61
2018-01-12 11:00:00 13.1 0 Calma 14 Oeste 0 1025.6 1.7 61
2018-01-12 10:00:00 12.1 4 Oeste 18 Sudoeste 0 1024.7 0.8 64
2018-01-12 09:00:00 10.8 8 Oeste 17 Oeste 0 1023.9 0.1 70
2018-01-12 08:00:00 10.2 9 Noroeste 13 Noroeste 0 1023.9 -0.2 72
2018-01-12 07:00:00 10.9 9 Oeste 17 Oeste 0 1023.9 -0.9 69
2018-01-12 06:00:00 12.2 2 Norte 33 Noroeste 0 1023.8 -1.8 65
2018-01-12 05:00:00 12 4 Sudoeste 14 Oeste 0 1024.1 -1.5 67
2018-01-12 04:00:00 11.8 9 Oeste 14 Oeste 0 1024.8 -1.2 68
2018-01-12 03:00:00 12 2 Sudoeste 11 Oeste 0 1025.6 -0.4 69
2018-01-12 02:00:00 12.7 3 Oeste 17 Noroeste 0 1025.6 -0.7 65
2018-01-12 01:00:00 13 6 Noroeste 21 Noroeste 0 1026 0.4 63
2018-01-12 00:00:00 14.3 15 Norte 36 Noroeste 0 1026 0.6 60
2018-01-11 23:00:00 14.2 7 Noroeste 18 Norte 0 1026.3 1.3 62
2018-01-11 22:00:00 14.7 7 Norte 26 Sudoeste 0 1025.6 1.4 60
2018-01-11 21:00:00 15 5 Sudoeste 27 Sudoeste 0 1025.4 1.6 63
2018-01-11 20:00:00 15.1 12 Sur 31 Sur 0 1025 1.1 62
2018-01-11 19:00:00 15.3 3 Sudoeste 14 Noroeste 0 1024.2 0.7 60
2018-01-11 18:00:00 15.9 8 Norte 26 Norte 0 1023.8 0.2 58
2018-01-11 17:00:00 16.7 10 Noroeste 34 Oeste 0 1023.9 -0.6 55
2018-01-11 16:00:00 16.4 15 Noroeste 39 Noroeste 0 1023.5 -2.2 56
2018-01-11 15:00:00 16.3 13 Noroeste 42 Noroeste 0 1023.6 -3 57
2018-01-11 14:00:00 16.2 12 Norte 42 Noroeste 0 1024.5 -2.3 57
2018-01-11 13:00:00 15.4 6 Noroeste 31 Norte 0 1025.7 -0.2 60
2018-01-11 12:00:00 14.5 3 Oeste 21 Noroeste 0 1026.6 0.6 61
2018-01-11 11:00:00 13.8 7 Norte 18 Norte 0 1026.8 1.2 62
2018-01-11 10:00:00 12.7 4 Norte 21 Noroeste 0 1025.9 0.6 63
2018-01-11 09:00:00 12 7 Nordeste 18 Norte 0 1026 1.4 61
2018-01-11 08:00:00 12.1 2 Nordeste 16 Este 0 1025.6 1.2 60
2018-01-11 07:00:00 12.6 8 Nordeste 16 Este 0 1025.3 0.4 60
2018-01-11 06:00:00 13.3 3 Oeste 35 Norte 0 1024.6 0.2 63
2018-01-11 05:00:00 13.6 14 Noroeste 38 Norte 0 1024.4 0.4 61
2018-01-11 04:00:00 13.8 8 Norte 28 Norte 0 1024.9 1 63
2018-01-11 03:00:00 14.1 4 Norte 25 Norte 0 1024.4 0.8 65
2018-01-11 02:00:00 14.9 8 Norte 35 Noroeste 0 1024 1 62
2018-01-11 01:00:00 15.4 12 Noroeste 36 Norte 0 1023.9 1.1 64
2018-01-11 00:00:00 15.5 2 Oeste 29 Oeste 0 1023.6 0.7 84
2018-01-10 23:00:00 15.7 11 Oeste 39 Oeste 0 1023 -0.2 84
2018-01-10 22:00:00 15.3 6 Sudeste 18 Oeste 0 1022.8 0.1 81
2018-01-10 21:00:00 15.4 2 Nordeste 16 Sudeste 0 1022.9 0.6 79
2018-01-10 20:00:00 16.1 5 Sudoeste 31 Noroeste 0 1023.2 1.2 75
2018-01-10 19:00:00 16.5 8 Oeste 34 Noroeste 0 1022.7 1.1 74
2018-01-10 18:00:00 17.1 3 Sudoeste 26 Sudoeste 0 1022.3 1 71
2018-01-10 17:00:00 17.6 9 Oeste 22 Sudoeste 0 1022 0.5 70
2018-01-10 16:00:00 17 7 Sudoeste 23 Oeste 0 1021.6 -0.6 69
2018-01-10 15:00:00 17 0 Calma 21 Sudoeste 0 1021.3 -1.6 74
2018-01-10 14:00:00 16.5 3 Nordeste 17 Sudoeste 0 1021.5 -1.1 76
2018-01-10 13:00:00 15.6 5 Sudoeste 18 Sudoeste 0 1022.2 0.4 82
2018-01-10 12:00:00 14.2 5 Sudoeste 27 Sur 0 1022.9 2.1 91
2018-01-10 11:00:00 13.6 12 Sur 22 Sudoeste 0 1022.6 2.4 98
2018-01-10 10:00:00 12.1 6 Sudeste 15 Sudoeste 0 1021.8 2.2 99
2018-01-10 09:00:00 10.9 6 Oeste 12 Noroeste 0 1020.8 1.5 99
2018-01-10 08:00:00 11.4 3 Oeste 8 Oeste 0 1020.2 1 99
2018-01-10 07:00:00 11.8 3 Oeste 15 Este 0.1 1019.6 1.1 99
2018-01-10 06:00:00 12.2 8 Este 14 Este 0 1019.3 0.5 99
2018-01-10 05:00:00 12 0 Calma 14 Este 1.4 1019.2 -0.3 99
2018-01-10 04:00:00 12.4 8 Este 14 Sudeste 1.5 1018.5 -1.2 99
2018-01-10 03:00:00 12.3 8 Este 20 Sudeste 1.1 1018.8 -1.4 99
2018-01-10 02:00:00 12.5 8 Este 19 Sudeste 0.8 1019.5 -0.7 99
2018-01-10 01:00:00 12.3 14 Sudeste 21 Este 0 1019.7 -0.7 99
2018-01-10 00:00:00 12.1 6 Este 13 Este 0 1020.2 -0.5 99
2018-01-09 23:00:00 11.8 2 Nordeste 13 Norte 0 1020.2 -0.3 99
2018-01-09 22:00:00 11.7 5 Este 14 Este 0.1 1020.4 0.1 99
2018-01-09 21:00:00 11.8 3 Nordeste 9 Este 0.8 1020.7 0.7 99
2018-01-09 20:00:00 11.9 2 Norte 3 Norte 1 1020.5 0.7 96
2018-01-09 19:00:00 11.8 0 Calma 6 Norte 1 1020.3 0.5 92
2018-01-09 18:00:00 12.2 3 Norte 11 Sudeste 0 1020 0.2 87
2018-01-09 17:00:00 12.7 8 Este 11 Sudeste 0 1019.8 -0.8 85
2018-01-09 16:00:00 13.1 7 Este 11 Nordeste 0 1019.8 -1.5 83
2018-01-09 15:00:00 13.4 3 Sudoeste 13 Oeste 0 1019.8 -1.6 82
2018-01-09 14:00:00 12.7 3 Norte 10 Norte 0 1020.6 -0.9 82
2018-01-09 13:00:00 11.8 2 Noroeste 6 Noroeste 0 1021.3 1.1 82
2018-01-09 12:00:00 10.8 0 Calma 5 Noroeste 0 1021.4 1.6 82
2018-01-09 11:00:00 9.8 4 Oeste 16 Oeste 0 1021.5 2.3 85
2018-01-09 10:00:00 8.5 5 Noroeste 16 Oeste 0 1020.2 1.7 87
2018-01-09 09:00:00 7.7 8 Noroeste 17 Oeste 0 1019.8 2.5 87
2018-01-09 08:00:00 8 7 Noroeste 15 Oeste 0 1019.2 2.3 87
2018-01-09 07:00:00 7.9 9 Oeste 17 Oeste 0 1018.5 1.6 87
2018-01-09 06:00:00 7.9 7 Noroeste 13 Noroeste 0 1017.3 1 90
2018-01-09 05:00:00 7.6 8 Noroeste 14 Oeste 0 1016.9 1 90
2018-01-09 04:00:00 7.7 8 Oeste 17 Oeste 0 1016.9 0.9 90
2018-01-09 03:00:00 7.6 8 Noroeste 13 Oeste 0 1016.3 0.2 90
2018-01-09 02:00:00 7.6 6 Noroeste 13 Noroeste 0 1015.9 0.6 90
2018-01-09 01:00:00 7.8 5 Oeste 14 Oeste 0 1016 1.4 90
2018-01-09 00:00:00 8.2 8 Oeste 15 Oeste 0 1016.1 1.8 90
2018-01-08 23:00:00 8.4 4 Oeste 13 Oeste 0 1015.3 1.6 90
2018-01-08 22:00:00 8.5 7 Oeste 14 Oeste 0 1014.6 1.8 90
2018-01-08 21:00:00 8.9 6 Noroeste 14 Oeste 0 1014.3 2.4 90
2018-01-08 20:00:00 9.2 5 Oeste 12 Oeste 0 1013.7 2.7 90
2018-01-08 19:00:00 9.6 6 Oeste 12 Oeste 0 1012.8 2.4 90
2018-01-08 18:00:00 10.5 0 Calma 19 Este 0 1011.9 1.9 88
2018-01-08 17:00:00 10 10 Este 22 Este 0 1011 1 93
2018-01-08 16:00:00 8.8 8 Nordeste 14 Nordeste 0.1 1010.4 0 99
2018-01-08 15:00:00 8.7 7 Este 12 Este 0.1 1010 -0.8 99
2018-01-08 14:00:00 8.1 3 Norte 10 Noroeste 1.6 1010 -0.8 99
2018-01-08 13:00:00 8 3 Norte 13 Norte 2 1010.4 1.3 99
2018-01-08 12:00:00 7.3 3 Noroeste 13 Norte 4.1 1010.8 3.3 99
2018-01-08 11:00:00 6.9 7 Norte 26 Oeste 13.2 1010.8 4 99
2018-01-08 10:00:00 8.7 19 Este 36 Este 2.1 1009.1 2.1 99
2018-01-08 09:00:00 9.1 14 Nordeste 27 Este 6.9 1007.5 0.6 98
2018-01-08 08:00:00 9.3 9 Este 18 Este 1.9 1006.8 0.2 96
2018-01-08 07:00:00 9.2 4 Norte 12 Oeste 0.5 1007 0.7 93
2018-01-08 06:00:00 9.9 0 Calma 12 Oeste 0 1006.9 1 85
2018-01-08 05:00:00 10.1 4 Noroeste 20 Oeste 0 1006.6 0.6 82
2018-01-08 04:00:00 9.9 6 Oeste 17 Oeste 0 1006.3 0.1 86
2018-01-08 03:00:00 9.8 0 Calma 13 Noroeste 0 1005.9 -0.1 84
2018-01-08 02:00:00 9.9 2 Oeste 12 Oeste 0 1006 0.4 84
2018-01-08 01:00:00 9.4 5 Oeste 13 Oeste 0 1006.2 1.1 84
2018-01-08 00:00:00 9.5 2 Noroeste 10 Oeste 0 1006 1.1 84
2018-01-07 23:00:00 9.5 2 Norte 9 Noroeste 0 1005.6 1.1 82
2018-01-07 22:00:00 9.4 4 Noroeste 10 Oeste 0 1005.1 1.1 82
2018-01-07 21:00:00 9.6 3 Noroeste 15 Oeste 0 1004.9 1.3 81
2018-01-07 20:00:00 10 5 Oeste 12 Noroeste 0 1004.5 1.5 79
2018-01-07 19:00:00 10.3 4 Oeste 9 Norte 0 1004 2 79
2018-01-07 18:00:00 10.4 8 Nordeste 17 Nordeste 0 1003.6 1.8 76
2018-01-07 17:00:00 11.5 6 Oeste 27 Oeste 0 1003 1.1 69
2018-01-07 16:00:00 11.4 8 Oeste 22 Oeste 0 1002 -0.1 67
2018-01-07 15:00:00 11.4 5 Oeste 26 Sur 0 1001.8 -0.8 68
2018-01-07 14:00:00 11.4 9 Sudoeste 16 Sur 0 1001.9 -0.6 66
2018-01-07 13:00:00 11.2 6 Sur 12 Sur 0 1002.1 0.5 68
2018-01-07 12:00:00 10.8 5 Sur 9 Sur 0 1002.6 1.5 68
2018-01-07 11:00:00 10.2 3 Sur 10 Sudeste 0 1002.5 2 69
2018-01-07 10:00:00 8.7 2 Norte 13 Noroeste 0 1001.6 1.6 67
2018-01-07 09:00:00 8.5 3 Noroeste 15 Oeste 0 1001.1 1.3 67
2018-01-07 08:00:00 8.6 5 Oeste 15 Oeste 0 1000.5 0.1 67
2018-01-07 07:00:00 8.9 6 Oeste 13 Oeste 0 1000 -1.2 65
2018-01-07 06:00:00 9.2 3 Noroeste 13 Oeste 0 999.8 -1.7 64
2018-01-07 05:00:00 8.8 4 Oeste 12 Nordeste 0 1000.4 -1.2 66
2018-01-07 04:00:00 8.5 8 Noroeste 12 Noroeste 0 1001.2 -0.5 65
2018-01-07 03:00:00 9.5 7 Oeste 12 Oeste 0 1001.5 -0.4 62
2018-01-07 02:00:00 10.5 4 Oeste 19 Oeste 0 1001.6 -0.5 57
2018-01-07 01:00:00 10.5 6 Noroeste 23 Oeste 0 1001.7 -0.1 60
2018-01-07 00:00:00 10.7 6 Oeste 23 Oeste 0 1001.9 0.2 60
2018-01-06 23:00:00 10.4 2 Sudoeste 25 Noroeste 0 1002.1 0.3 65
2018-01-06 22:00:00 10.8 5 Noroeste 24 Oeste 0 1001.8 0.5 61
2018-01-06 21:00:00 11.1 5 Oeste 19 Oeste 0 1001.7 1 60
2018-01-06 20:00:00 11.9 6 Oeste 22 Norte 0 1001.8 1.7 60
2018-01-06 19:00:00 12.3 12 Noroeste 27 Noroeste 0 1001.3 1.8 57
2018-01-06 18:00:00 13.2 9 Noroeste 32 Norte 0 1000.7 1.8 54
2018-01-06 17:00:00 14 10 Norte 33 Noroeste 0 1000.1 1.4 54
2018-01-06 16:00:00 13.9 14 Norte 36 Noroeste 0 999.5 0.4 53
2018-01-06 15:00:00 14.3 11 Noroeste 31 Noroeste 0 998.9 1.1 54
2018-01-06 14:00:00 13.1 12 Noroeste 35 Noroeste 0 998.7 1.9 64
2018-01-06 13:00:00 11.7 13 Noroeste 39 Oeste 0 999.1 3.2 75
2018-01-06 12:00:00 10.8 12 Oeste 62 Norte 0.1 997.8 1.5 77
2018-01-06 11:00:00 9.6 6 Norte 48 Noroeste 0.1 996.8 0.3 81
2018-01-06 10:00:00 9.8 9 Norte 28 Noroeste 0.4 995.9 -1.7 95
2018-01-06 09:00:00 12 6 Oeste 17 Oeste 4.6 996.3 -2.8 98
2018-01-06 08:00:00 12.1 6 Noroeste 14 Norte 0.1 996.5 -4.4 97
2018-01-06 07:00:00 12.2 5 Noroeste 31 Oeste 0.1 997.6 -3.7 95
2018-01-06 06:00:00 12.7 13 Oeste 34 Oeste 0 999.1 -3.3 89
2018-01-06 05:00:00 13.3 14 Oeste 51 Oeste 0 1000.9 -3 81
2018-01-06 04:00:00 15.3 10 Sudoeste 31 Sudoeste 0 1001.3 -4 83
2018-01-06 03:00:00 15.7 4 Sur 16 Sudoeste 0 1002.4 -4.8 86
2018-01-06 02:00:00 15.4 4 Oeste 17 Sudoeste 0 1003.9 -4.1 84
2018-01-06 01:00:00 15.2 4 Oeste 15 Sudoeste 0 1005.3 -3.8 87
2018-01-06 00:00:00 15.5 5 Sudoeste 29 Noroeste 0 1007.2 -2.3 85
2018-01-05 23:00:00 15.5 11 Oeste 32 Oeste 0 1008 -2.1 82
2018-01-05 22:00:00 15.5 5 Oeste 20 Oeste 0 1009.1 -1.7 84
2018-01-05 21:00:00 15.6 4 Noroeste 33 Oeste 0 1009.5 -1.3 81
2018-01-05 20:00:00 15.8 8 Oeste 24 Sudoeste 0 1010.1 -0.9 79
2018-01-05 19:00:00 16 8 Oeste 31 Sudoeste 0 1010.8 -0.7 77
2018-01-05 18:00:00 16.4 10 Oeste 32 Oeste 0 1010.8 -1.2 78
2018-01-05 17:00:00 16.9 9 Oeste 37 Sudoeste 0 1011 -2.4 79
2018-01-05 16:00:00 17.6 10 Oeste 35 Sudoeste 0 1011.5 -3.6 73
2018-01-05 15:00:00 18.1 10 Oeste 37 Oeste 0 1012 -4.7 68
2018-01-05 14:00:00 18 8 Oeste 28 Noroeste 0 1013.4 -4.4 67
2018-01-05 13:00:00 17.6 7 Oeste 30 Sudoeste 0 1015.1 -2.9 71
2018-01-05 12:00:00 16.6 6 Sudoeste 21 Oeste 0 1016.7 -1.4 75
2018-01-05 11:00:00 15.4 3 Sur 11 Sur 0 1017.8 -0.5 79
2018-01-05 10:00:00 14.2 0 Calma 14 Oeste 0 1018 0 79
2018-01-05 09:00:00 14 4 Oeste 13 Noroeste 0 1018.1 0.3 79
2018-01-05 08:00:00 14.4 5 Oeste 13 Oeste 0 1018.3 0.2 79
2018-01-05 07:00:00 15 0 Calma 24 Sudeste 0 1018 -0.6 77
2018-01-05 06:00:00 15.5 3 Sudoeste 28 Sudeste 0 1017.8 -1.4 79
2018-01-05 05:00:00 13.6 3 Norte 14 Oeste 0 1018.1 -2 82
2018-01-05 04:00:00 14.6 7 Oeste 18 Oeste 0 1018.6 -2.7 81
2018-01-05 03:00:00 14.7 0 Calma 16 Noroeste 0 1019.2 -2.8 79
2018-01-05 02:00:00 16 4 Sudoeste 26 Nordeste 0 1020.1 -2.5 79
2018-01-05 01:00:00 16 5 Norte 21 Norte 0 1021.3 -1.3 76
2018-01-05 00:00:00 15.6 9 Sudeste 14 Este 0 1022 -0.8 78
2018-01-04 23:00:00 16.2 6 Sudeste 27 Nordeste 0 1022.6 -0.5 77
2018-01-04 22:00:00 16 18 Nordeste 46 Nordeste 0 1022.6 -0.1 78
2018-01-04 21:00:00 16.3 4 Nordeste 24 Este 0 1022.8 0.1 77
2018-01-04 20:00:00 17.1 2 Nordeste 12 Oeste 0 1023.1 0.4 75
2018-01-04 19:00:00 17.9 3 Oeste 12 Oeste 0 1022.7 -0.1 72
2018-01-04 18:00:00 18.9 3 Sudoeste 28 Norte 0 1022.7 -0.8 71
2018-01-04 17:00:00 20.6 3 Este 14 Este 0 1022.7 -1.8 67
2018-01-04 16:00:00 20.6 8 Oeste 15 Sudoeste 0 1022.8 -2.8 71
2018-01-04 15:00:00 16.9 5 Sudoeste 21 Sur 0 1023.5 -3.4 88
2018-01-04 14:00:00 16.9 6 Nordeste 20 Sudoeste 0 1024.5 -2.8 86
2018-01-04 13:00:00 16.8 5 Nordeste 8 Este 0 1025.6 -1.1 84
2018-01-04 12:00:00 16.3 2 Sudeste 12 Sudeste 0 1026.9 0.6 83
2018-01-04 11:00:00 16.2 3 Sur 5 Este 0 1027.3 1.2 81
2018-01-04 10:00:00 15.5 0 Calma 6 Norte 0 1026.7 0.8 75
2018-01-04 09:00:00 15 5 Noroeste 9 Norte 0 1026.3 0.2 75
2018-01-04 08:00:00 14.5 4 Noroeste 13 Nordeste 0 1026.1 0 76
2018-01-04 07:00:00 15 0 Calma 7 Norte 0 1025.9 -0.7 74
2018-01-04 06:00:00 15 4 Noroeste 8 Noroeste 0 1026.1 -0.2 75
2018-01-04 05:00:00 15.1 2 Norte 11 Norte 0 1026.1 -0.6 72
2018-01-04 04:00:00 15.8 2 Noroeste 16 Oeste 0 1026.6 -0.5 71
2018-01-04 03:00:00 16.5 6 Oeste 12 Oeste 0 1026.3 -1.5 70
2018-01-04 02:00:00 17 6 Noroeste 17 Oeste 0 1026.7 -1.4 68
2018-01-04 01:00:00 17.1 2 Noroeste 21 Oeste 0 1027.1 -0.9 68
2018-01-04 00:00:00 17 9 Oeste 17 Oeste 0 1027.8 -0.2 70
2018-01-03 23:00:00 17.1 6 Oeste 12 Noroeste 0 1028.1 0.5 70
2018-01-03 22:00:00 17.3 5 Noroeste 11 Oeste 0 1028 0.5 69
2018-01-03 21:00:00 18.3 4 Noroeste 15 Oeste 0 1028 0.5 68
2018-01-03 20:00:00 18.5 2 Oeste 10 Sudeste 0 1027.6 0.2 67
2018-01-03 19:00:00 19.5 8 Sur 23 Norte 0 1027.5 -0.3 65
2018-01-03 18:00:00 20.8 9 Sudeste 15 Sudeste 0 1027.5 -0.5 62
2018-01-03 17:00:00 20.5 2 Sudeste 7 Sudeste 0 1027.4 -1.2 65
2018-01-03 16:00:00 20.4 0 Calma 17 Nordeste 0 1027.8 -1.8 65
2018-01-03 15:00:00 21.3 13 Nordeste 23 Norte 0 1028 -2.4 61
2018-01-03 14:00:00 21.9 0 Calma 19 Noroeste 0 1028.6 -2.2 60
2018-01-03 13:00:00 20.5 4 Oeste 22 Oeste 0 1029.6 -0.6 64
2018-01-03 12:00:00 19.3 5 Oeste 19 Oeste 0 1030.4 0.7 67
2018-01-03 11:00:00 17.8 11 Oeste 21 Oeste 0 1030.8 1.5 70
2018-01-03 10:00:00 17 5 Oeste 18 Oeste 0 1030.2 1.4 73
2018-01-03 09:00:00 15.7 5 Noroeste 17 Oeste 0 1029.7 0.9 73
2018-01-03 08:00:00 16.5 4 Oeste 18 Norte 0 1029.3 0.6 70
2018-01-03 07:00:00 16.7 5 Noroeste 20 Oeste 0 1028.8 -0.2 70
2018-01-03 06:00:00 16.6 10 Noroeste 22 Oeste 0 1028.8 -0.3 70
2018-01-03 05:00:00 17.2 9 Oeste 32 Norte 0 1028.7 -0.7 68
2018-01-03 04:00:00 17.6 6 Oeste 22 Noroeste 0 1029 -0.4 67
2018-01-03 03:00:00 17.6 11 Noroeste 23 Noroeste 0 1029.1 -0.2 65
2018-01-03 02:00:00 17.1 8 Noroeste 28 Noroeste 0 1029.4 0.9 65
2018-01-03 01:00:00 18.4 9 Noroeste 32 Nordeste 0 1029.4 1 63
2018-01-03 00:00:00 18.4 9 Norte 43 Oeste 0 1029.3 0.3 62
2018-01-02 23:00:00 18.6 22 Norte 67 Norte 0 1028.5 -0.6 60
2018-01-02 22:00:00 18.3 27 Norte 60 Norte 0 1028.4 -0.7 61
2018-01-02 21:00:00 18.5 16 Noroeste 52 Noroeste 0 1029 -0.2 62
2018-01-02 20:00:00 18.2 17 Norte 55 Oeste 0 1029.1 -0.3 60
2018-01-02 19:00:00 16.9 20 Noroeste 47 Noroeste 0 1029.1 -0.3 62
2018-01-02 18:00:00 17.8 20 Noroeste 44 Noroeste 0 1029.2 -0.1 59
2018-01-02 17:00:00 18.9 15 Noroeste 35 Norte 0 1029.4 -0.5 57
2018-01-02 16:00:00 19.6 12 Norte 39 Norte 0 1029.4 -1.1 54
2018-01-02 15:00:00 20 12 Noroeste 27 Oeste 0 1029.3 -2.8 53
2018-01-02 14:00:00 18.9 6 Sur 21 Sudeste 0 1029.9 -2.2 59
2018-01-02 13:00:00 19.2 5 Nordeste 28 Oeste 0 1030.5 -1.3 52
2018-01-02 12:00:00 17.5 0 Calma 10 Noroeste 0 1032.1 0.5 55
2018-01-02 11:00:00 15.8 3 Sudoeste 10 Sudoeste 0 1032.1 1.1 71
2018-01-02 10:00:00 15 5 Sudoeste 10 Sur 0 1031.8 1.2 69
2018-01-02 09:00:00 14.5 0 Calma 23 Noroeste 0 1031.6 1 63
2018-01-02 08:00:00 14.2 9 Noroeste 17 Noroeste 0 1031 0.6 65
2018-01-02 07:00:00 14.7 3 Sudoeste 17 Sur 0 1030.6 -0.3 65
2018-01-02 06:00:00 15.6 2 Norte 53 Nordeste 0 1030.6 -0.5 58
2018-01-02 05:00:00 16.6 24 Norte 41 Nordeste 0 1030.4 -0.2 56
2018-01-02 04:00:00 16.5 13 Norte 47 Nordeste 0 1030.9 -1 55
2018-01-02 03:00:00 16.2 27 Nordeste 48 Nordeste 0 1031.1 -0.8 55
2018-01-02 02:00:00 16.1 19 Nordeste 41 Nordeste 0 1030.6 -1.3 53
2018-01-02 01:00:00 16.4 11 Noroeste 27 Oeste 0 1031.9 -0.2 49
2018-01-02 00:00:00 16.6 9 Este 20 Nordeste 0 1031.9 0.2 46
2018-01-01 23:00:00 16.5 4 Sudeste 21 Nordeste 0 1031.9 0.6 46
2018-01-01 22:00:00 16.5 2 Noroeste 20 Sur 0 1032.1 1.5 43
2018-01-01 21:00:00 16.4 8 Oeste 22 Oeste 0 1031.7 1.1 43
2018-01-01 20:00:00 16.9 7 Oeste 19 Sudoeste 0 1031.3 0.9 43
2018-01-01 19:00:00 17 3 Noroeste 16 Oeste 0 1030.6 0 42
2018-01-01 18:00:00 17.1 6 Sudeste 14 Sudoeste 0 1030.6 -0.4 65
2018-01-01 17:00:00 18.8 3 Sudoeste 15 Sudoeste 0 1030.4 -1.6 58
2018-01-01 16:00:00 18.1 2 Oeste 18 Sudoeste 0 1030.6 -2.2 62
2018-01-01 15:00:00 17.2 8 Sudoeste 20 Sudoeste 0 1031 -2.3 74
2018-01-01 14:00:00 16.7 6 Sudoeste 15 Sur 0 1032 -1.7 77
2018-01-01 13:00:00 16.8 3 Sur 6 Sudeste 0 1032.8 0 73
2018-01-01 12:00:00 16 5 Sur 10 Sudoeste 0 1033.3 1.5 68
2018-01-01 11:00:00 15.6 8 Sur 12 Oeste 0 1033.7 2.9 61
2018-01-01 10:00:00 14.9 4 Oeste 12 Oeste 0 1032.8 2.5 55
2018-01-01 09:00:00 13.9 2 Noroeste 26 Oeste 0 1031.8 1.6 55
2018-01-01 08:00:00 14.6 10 Oeste 24 Oeste 0 1030.8 0.4 57
2018-01-01 07:00:00 14.1 9 Oeste 19 Oeste 0 1030.3 -0.7 64
2018-01-01 06:00:00 14.1 6 Noroeste 17 Oeste 0 1030.2 -0.8 66
2018-01-01 05:00:00 14.8 3 Oeste 18 Oeste 0 1030.4 -0.6 66
2018-01-01 04:00:00 15.2 5 Oeste 21 Oeste 0 1031 -0.3 63
2018-01-01 03:00:00 16 4 Oeste 23 Sur 0 1031 0.5 60
2018-01-01 02:00:00 17.2 8 Noroeste 40 Nordeste 0 1031 1.1 55
2018-01-01 01:00:00 17.3 8 Norte 31 Noroeste 0 1031.3 1.9 58
2018-01-01 00:00:00 18 7 Noroeste 21 Oeste 0 1030.5 2 67
2017-12-31 23:00:00 18.4 8 Noroeste 24 Oeste 0 1029.9 2.3 68
2017-12-31 22:00:00 17.3 6 Oeste 21 Oeste 0 1029.4 3.1 77
2017-12-31 21:00:00 17 7 Oeste 21 Oeste 0 1028.5 2.8 78
2017-12-31 20:00:00 16.8 5 Oeste 14 Noroeste 0 1027.6 2.2 76
2017-12-31 19:00:00 17 2 Sudoeste 6 Nordeste 0 1026.3 1.3 79
2017-12-31 18:00:00 17.7 2 Nordeste 10 Oeste 0 1025.7 0.9 76
2017-12-31 17:00:00 18 4 Oeste 20 Oeste 0 1025.4 0.3 76
2017-12-31 16:00:00 18.2 4 Sudoeste 19 Sur 0 1025 -0.6 73
2017-12-31 15:00:00 17.9 8 Sudoeste 17 Sudoeste 0 1024.8 -1.4 78
2017-12-31 14:00:00 17.9 4 Sudoeste 16 Oeste 0 1025.1 -1 79
2017-12-31 13:00:00 17.3 5 Oeste 18 Oeste 0 1025.6 0.2 84
2017-12-31 12:00:00 17 5 Oeste 20 Sudoeste 0 1026.2 1.4 83
2017-12-31 11:00:00 16.3 3 Oeste 17 Oeste 0 1026.1 1.7 81
2017-12-31 10:00:00 15.9 7 Oeste 27 Oeste 0 1025.4 1.2 86
2017-12-31 09:00:00 14.9 3 Norte 12 Norte 0 1024.8 0.8 84
2017-12-31 08:00:00 13.6 4 Noroeste 14 Noroeste 0 1024.4 0.1 91
2017-12-31 07:00:00 12.4 4 Noroeste 13 Oeste 0 1024.2 -0.6 92
2017-12-31 06:00:00 12.5 0 Calma 8 Noroeste 0 1024 -1 92
2017-12-31 05:00:00 13 6 Noroeste 13 Noroeste 0 1024.3 -1 92
2017-12-31 04:00:00 12.8 6 Noroeste 16 Oeste 0 1024.8 -0.7 92
2017-12-31 03:00:00 12.8 6 Noroeste 12 Oeste 0 1025 -0.9 92
2017-12-31 02:00:00 13.2 7 Noroeste 11 Noroeste 0 1025.3 -0.6 92
2017-12-31 01:00:00 13.5 4 Noroeste 8 Noroeste 0 1025.5 -0.6 90